createdAt,value
2022-11-05T00:02:33.892Z,9.17
2022-11-05T00:05:32.163Z,12.07
2022-11-05T00:08:21.153Z,10.40
2022-11-05T00:10:49.626Z,9.27
2022-11-05T00:13:35.586Z,14.13
2022-11-05T00:16:35.543Z,16.13
2022-11-05T00:19:10.131Z,13.20
2022-11-05T00:22:12.340Z,13.07
2022-11-05T00:24:57.728Z,12.07
2022-11-05T00:27:25.728Z,12.07
2022-11-05T00:29:53.716Z,11.27
2022-11-05T00:32:23.219Z,11.97
2022-11-05T00:34:51.148Z,9.80
2022-11-05T00:37:20.596Z,13.93
2022-11-05T00:39:48.652Z,10.87
2022-11-05T00:42:34.095Z,16.37
2022-11-05T00:45:02.088Z,10.40
2022-11-05T00:47:47.844Z,11.77
2022-11-05T00:50:16.218Z,11.97
2022-11-05T00:52:57.981Z,15.17
2022-11-05T00:55:33.309Z,13.27
2022-11-05T00:58:02.414Z,9.47
2022-11-05T01:00:31.798Z,12.57
2022-11-05T01:03:01.797Z,11.37
2022-11-05T01:05:31.912Z,11.10
2022-11-05T01:08:02.254Z,17.07
2022-11-05T01:10:31.085Z,13.73
2022-11-05T01:12:59.294Z,14.10
2022-11-05T01:15:27.621Z,10.37
2022-11-05T01:17:55.713Z,13.30
2022-11-05T01:20:23.844Z,17.67
2022-11-05T01:22:51.963Z,10.67
2022-11-05T01:25:21.918Z,11.73
2022-11-05T01:27:49.920Z,11.83
2022-11-05T01:30:18.359Z,11.50
2022-11-05T01:32:46.384Z,13.53
2022-11-05T01:35:16.423Z,12.17
2022-11-05T01:37:44.989Z,11.27
2022-11-05T01:40:14.780Z,11.37
2022-11-05T01:42:44.547Z,11.30
2022-11-05T01:45:16.368Z,12.23
2022-11-05T01:47:51.429Z,12.13
2022-11-05T01:50:27.942Z,9.27
2022-11-05T01:53:03.741Z,11.33
2022-11-05T01:55:36.855Z,11.97
2022-11-05T01:58:08.495Z,12.00
2022-11-05T02:00:37.371Z,9.87
2022-11-05T02:03:05.889Z,9.50
2022-11-05T02:05:35.226Z,10.77
2022-11-05T02:08:04.147Z,10.27
2022-11-05T02:10:33.298Z,10.80
2022-11-05T02:13:01.559Z,13.33
2022-11-05T02:15:41.196Z,10.00
2022-11-05T02:18:21.422Z,11.90
2022-11-05T02:20:59.276Z,10.47
2022-11-05T02:23:47.653Z,10.83
2022-11-05T02:26:49.488Z,13.80
2022-11-05T02:29:44.266Z,11.00
2022-11-05T02:32:21.825Z,11.77
2022-11-05T02:34:57.625Z,11.03
2022-11-05T02:37:38.384Z,13.97
2022-11-05T02:40:16.627Z,11.53
2022-11-05T02:42:53.181Z,13.00
2022-11-05T02:45:33.521Z,16.63
2022-11-05T02:48:11.891Z,14.37
2022-11-05T02:50:50.283Z,11.90
2022-11-05T02:53:29.367Z,8.70
2022-11-05T02:56:02.391Z,12.63
2022-11-05T02:58:30.963Z,11.63
2022-11-05T03:01:00.348Z,9.97
2022-11-05T03:03:34.688Z,10.83
2022-11-05T03:06:19.556Z,13.73
2022-11-05T03:09:03.889Z,11.07
2022-11-05T03:11:37.296Z,11.77
2022-11-05T03:14:20.805Z,12.67
2022-11-05T03:16:56.326Z,12.73
2022-11-05T03:19:36.187Z,13.60
2022-11-05T03:22:11.141Z,12.10
2022-11-05T03:24:43.798Z,13.50
2022-11-05T03:27:15.383Z,12.90
2022-11-05T03:29:48.536Z,12.73
2022-11-05T03:32:18.838Z,13.30
2022-11-05T03:34:52.543Z,9.27
2022-11-05T03:37:24.215Z,12.23
2022-11-05T03:39:55.331Z,11.80
2022-11-05T03:42:28.001Z,9.40
2022-11-05T03:45:00.171Z,11.40
2022-11-05T03:47:32.990Z,13.30
2022-11-05T03:50:11.965Z,10.27
2022-11-05T03:52:47.706Z,13.90
2022-11-05T03:55:16.670Z,14.50
2022-11-05T03:57:49.971Z,11.80
2022-11-05T04:00:22.686Z,11.17
2022-11-05T04:02:51.252Z,12.70
2022-11-05T04:05:20.676Z,11.57
2022-11-05T04:08:08.768Z,11.27
2022-11-05T04:11:00.398Z,13.27
2022-11-05T04:13:28.808Z,12.53
2022-11-05T04:16:15.522Z,13.50
2022-11-05T04:18:44.013Z,11.73
2022-11-05T04:21:30.649Z,14.70
2022-11-05T04:24:11.045Z,13.43
2022-11-05T04:26:40.487Z,8.70
2022-11-05T04:29:27.010Z,16.93
2022-11-05T04:31:55.238Z,8.63
2022-11-05T04:34:24.609Z,12.53
2022-11-05T04:36:54.189Z,13.10
2022-11-05T04:39:22.616Z,13.10
2022-11-05T04:41:51.115Z,12.17
2022-11-05T04:44:19.013Z,12.00
2022-11-05T04:46:47.323Z,11.03
2022-11-05T04:49:15.280Z,13.17
2022-11-05T04:51:43.468Z,12.50
2022-11-05T04:54:12.965Z,13.23
2022-11-05T04:56:41.110Z,12.23
2022-11-05T04:59:09.199Z,16.50
2022-11-05T05:01:37.405Z,15.90
2022-11-05T05:04:05.768Z,16.60
2022-11-05T05:06:33.828Z,14.40
2022-11-05T05:09:01.696Z,13.17
2022-11-05T05:11:31.018Z,13.03
2022-11-05T05:13:58.914Z,14.17
2022-11-05T05:16:28.559Z,11.83
2022-11-05T05:18:56.561Z,12.93
2022-11-05T05:21:38.916Z,13.03
2022-11-05T05:24:09.186Z,12.77
2022-11-05T05:26:39.418Z,14.73
2022-11-05T05:29:07.862Z,15.03
2022-11-05T05:31:35.905Z,12.77
2022-11-05T05:34:04.166Z,13.77
2022-11-05T05:36:32.748Z,14.83
2022-11-05T05:39:00.829Z,14.87
2022-11-05T05:41:28.909Z,12.10
2022-11-05T05:43:58.430Z,12.83
2022-11-05T05:46:26.895Z,16.80
2022-11-05T05:48:55.152Z,14.63
2022-11-05T05:51:23.150Z,12.73
2022-11-05T05:53:51.123Z,14.33
2022-11-05T05:56:20.566Z,13.17
2022-11-05T05:58:49.051Z,14.27
2022-11-05T06:01:20.106Z,13.90
2022-11-05T06:03:49.176Z,12.67
2022-11-05T06:06:20.874Z,13.90
2022-11-05T06:08:49.359Z,14.97
2022-11-05T06:11:17.678Z,14.07
2022-11-05T06:13:46.269Z,13.43
2022-11-05T06:16:14.255Z,13.20
2022-11-05T06:18:43.817Z,15.37
2022-11-05T06:21:14.139Z,13.80
2022-11-05T06:23:44.256Z,15.07
2022-11-05T06:26:14.091Z,13.77
2022-11-05T06:28:42.491Z,16.03
2022-11-05T06:31:21.505Z,13.27
2022-11-05T06:33:53.929Z,15.77
2022-11-05T06:36:22.314Z,13.97
2022-11-05T06:38:50.502Z,15.10
2022-11-05T06:41:18.706Z,16.23
2022-11-05T06:43:46.957Z,14.93
2022-11-05T06:46:15.442Z,14.50
2022-11-05T06:48:43.705Z,16.47
2022-11-05T06:51:13.103Z,17.70
2022-11-05T06:53:41.405Z,12.87
2022-11-05T06:56:09.911Z,16.93
2022-11-05T06:58:38.122Z,17.07
2022-11-05T07:01:09.121Z,18.83
2022-11-05T07:03:40.260Z,18.30
2022-11-05T07:06:09.033Z,15.40
2022-11-05T07:08:40.379Z,16.77
2022-11-05T07:11:08.411Z,15.13
2022-11-05T07:13:36.491Z,16.80
2022-11-05T07:16:04.711Z,14.77
2022-11-05T07:18:32.759Z,18.60
2022-11-05T07:21:01.153Z,18.47
2022-11-05T07:23:29.293Z,20.10
2022-11-05T07:26:00.435Z,16.83
2022-11-05T07:28:28.550Z,20.93
2022-11-05T07:30:56.626Z,18.43
2022-11-05T07:33:24.640Z,15.73
2022-11-05T07:35:52.723Z,17.63
2022-11-05T07:38:21.110Z,21.33
2022-11-05T07:40:49.380Z,17.37
2022-11-05T07:43:18.710Z,18.13
2022-11-05T07:45:47.046Z,18.20
2022-11-05T07:48:14.961Z,23.03
2022-11-05T07:50:42.952Z,18.60
2022-11-05T07:53:13.085Z,18.73
2022-11-05T07:55:41.997Z,17.93
2022-11-05T07:58:10.742Z,19.37
2022-11-05T08:00:40.441Z,19.97
2022-11-05T08:03:11.860Z,21.70
2022-11-05T08:05:44.543Z,19.87
2022-11-05T08:08:14.147Z,19.37
2022-11-05T08:10:42.826Z,18.27
2022-11-05T08:13:13.345Z,22.10
2022-11-05T08:15:43.549Z,21.60
2022-11-05T08:18:13.895Z,14.87
2022-11-05T08:20:43.529Z,17.63
2022-11-05T08:23:12.108Z,17.87
2022-11-05T08:25:40.804Z,17.53
2022-11-05T08:28:13.107Z,26.67
2022-11-05T08:30:42.916Z,29.10
2022-11-05T08:33:13.666Z,31.23
2022-11-05T08:35:42.972Z,28.73
2022-11-05T08:38:14.083Z,25.50
2022-11-05T08:40:43.302Z,34.67
2022-11-05T08:43:13.751Z,36.97
2022-11-05T08:45:43.891Z,33.47
2022-11-05T08:48:14.990Z,24.77
2022-11-05T08:50:43.638Z,37.30
2022-11-05T08:53:12.738Z,26.03
2022-11-05T08:55:41.095Z,20.53
2022-11-05T08:58:12.647Z,15.80
2022-11-05T09:00:41.348Z,12.47
2022-11-05T09:03:11.794Z,11.93
2022-11-05T09:05:41.562Z,12.87
2022-11-05T09:08:11.206Z,13.13
2022-11-05T09:10:39.773Z,12.53
2022-11-05T09:13:13.058Z,16.90
2022-11-05T09:15:51.053Z,15.00
2022-11-05T09:18:22.845Z,15.30
2022-11-05T09:20:50.969Z,16.17
2022-11-05T09:23:19.183Z,12.30
2022-11-05T09:25:48.051Z,14.17
2022-11-05T09:28:18.661Z,16.40
2022-11-05T09:30:48.644Z,16.90
2022-11-05T09:33:17.994Z,11.57
2022-11-05T09:35:47.804Z,13.80
2022-11-05T09:38:15.968Z,11.10
2022-11-05T09:40:51.953Z,11.10
2022-11-05T09:43:30.282Z,13.57
2022-11-05T09:46:09.655Z,12.03
2022-11-05T09:48:40.539Z,14.07
2022-11-05T09:51:20.847Z,14.20
2022-11-05T09:53:51.825Z,10.50
2022-11-05T09:56:23.904Z,11.37
2022-11-05T09:58:59.490Z,12.80
2022-11-05T10:01:35.500Z,12.67
2022-11-05T10:04:08.608Z,14.37
2022-11-05T10:06:44.663Z,11.73
2022-11-05T10:09:19.218Z,11.90
2022-11-05T10:11:51.264Z,13.67
2022-11-05T10:14:24.548Z,9.93
2022-11-05T10:16:57.340Z,10.30
2022-11-05T10:19:32.360Z,12.77
2022-11-05T10:22:11.767Z,11.93
2022-11-05T10:24:43.116Z,11.93
2022-11-05T10:27:18.092Z,11.80
2022-11-05T10:29:47.776Z,12.57
2022-11-05T10:32:24.881Z,10.50
2022-11-05T10:34:55.271Z,12.93
2022-11-05T10:37:25.777Z,15.47
2022-11-05T10:39:53.983Z,13.93
2022-11-05T10:42:48.105Z,13.83
2022-11-05T10:45:26.754Z,13.93
2022-11-05T10:48:06.805Z,11.50
2022-11-05T10:50:35.481Z,10.30
2022-11-05T10:53:12.969Z,10.80
2022-11-05T10:55:44.648Z,10.70
2022-11-05T10:58:21.613Z,12.40
2022-11-05T11:01:04.738Z,11.93
2022-11-05T11:03:43.223Z,9.27
2022-11-05T11:06:25.331Z,13.73
2022-11-05T11:08:57.873Z,11.10
2022-11-05T11:11:28.946Z,9.67
2022-11-05T11:14:03.693Z,10.37
2022-11-05T11:16:37.826Z,13.03
2022-11-05T11:19:24.885Z,11.47
2022-11-05T11:22:14.856Z,10.10
2022-11-05T11:24:47.000Z,10.67
2022-11-05T11:27:18.706Z,8.97
2022-11-05T11:29:50.976Z,8.43
2022-11-05T11:32:21.724Z,12.97
2022-11-05T11:34:55.533Z,10.07
2022-11-05T11:37:27.036Z,10.43
2022-11-05T11:40:00.286Z,11.93
2022-11-05T11:42:32.245Z,9.77
2022-11-05T11:45:05.342Z,13.20
2022-11-05T11:47:34.597Z,9.43
2022-11-05T11:50:04.250Z,8.50
2022-11-05T11:52:34.233Z,8.20
2022-11-05T11:55:23.133Z,8.20
2022-11-05T11:57:56.518Z,14.07
2022-11-05T12:00:31.961Z,7.47
2022-11-05T12:03:24.459Z,9.13
2022-11-05T12:06:02.015Z,8.83
2022-11-05T12:08:45.854Z,9.77
2022-11-05T12:11:25.652Z,7.40
2022-11-05T12:14:07.315Z,8.00
2022-11-05T12:17:07.175Z,9.70
2022-11-05T12:20:01.902Z,8.33
2022-11-05T12:23:02.753Z,9.20
2022-11-05T12:25:42.005Z,10.60
2022-11-05T12:29:16.821Z,11.17
2022-11-05T12:31:45.958Z,8.17
2022-11-05T12:34:28.915Z,8.93
2022-11-05T12:37:30.254Z,8.03
2022-11-05T12:40:48.571Z,11.67
2022-11-05T12:43:33.644Z,12.40
2022-11-05T12:46:13.134Z,9.33
2022-11-05T12:49:03.594Z,11.00
2022-11-05T12:51:51.500Z,9.13
2022-11-05T12:54:38.571Z,8.67
2022-11-05T12:57:10.461Z,9.40
2022-11-05T12:59:45.485Z,9.23
2022-11-05T13:02:26.273Z,9.83
2022-11-05T13:05:02.693Z,10.10
2022-11-05T13:07:40.162Z,11.77
2022-11-05T13:10:26.541Z,8.40
2022-11-05T13:13:11.552Z,6.57
2022-11-05T13:15:50.957Z,6.50
2022-11-05T13:18:33.164Z,7.07
2022-11-05T13:21:06.863Z,7.57
2022-11-05T13:23:42.239Z,5.87
2022-11-05T13:26:23.238Z,6.70
2022-11-05T13:29:01.076Z,6.23
2022-11-05T13:31:37.068Z,7.40
2022-11-05T13:34:17.230Z,7.17
2022-11-05T13:37:10.084Z,8.97
2022-11-05T13:39:46.964Z,8.47
2022-11-05T13:42:46.888Z,7.80
2022-11-05T13:45:46.440Z,8.37
2022-11-05T13:48:53.452Z,5.50
2022-11-05T13:51:51.538Z,8.83
2022-11-05T13:55:02.479Z,5.97
2022-11-05T13:58:13.416Z,6.77
2022-11-05T14:00:51.360Z,4.23
2022-11-05T14:03:24.240Z,4.83
2022-11-05T14:06:04.296Z,7.60
2022-11-05T14:08:45.375Z,6.20
2022-11-05T14:11:22.991Z,4.70
2022-11-05T14:13:56.083Z,3.10
2022-11-05T14:16:26.894Z,10.73
2022-11-05T14:19:16.581Z,7.73
2022-11-05T14:21:51.558Z,7.40
2022-11-05T14:24:29.143Z,8.80
2022-11-05T14:27:52.574Z,6.87
2022-11-05T14:30:44.048Z,8.47
2022-11-05T14:33:18.597Z,8.07
2022-11-05T14:35:46.505Z,6.60
2022-11-05T14:38:23.196Z,6.43
2022-11-05T14:41:00.142Z,5.47
2022-11-05T14:43:30.348Z,9.87
2022-11-05T14:46:03.401Z,5.83
2022-11-05T14:48:40.518Z,6.63
2022-11-05T14:51:26.020Z,4.50
2022-11-05T14:54:02.222Z,6.47
2022-11-05T14:56:43.450Z,6.97
2022-11-05T14:59:33.285Z,6.73
2022-11-05T15:02:05.263Z,5.87
2022-11-05T15:04:36.074Z,5.87
2022-11-05T15:07:30.608Z,6.53
2022-11-05T15:10:08.870Z,6.20
2022-11-05T15:12:44.714Z,6.93
2022-11-05T15:15:33.130Z,6.07
2022-11-05T15:18:04.860Z,7.57
2022-11-05T15:20:40.175Z,5.77
2022-11-05T15:23:13.820Z,7.53
2022-11-05T15:25:52.734Z,6.17
2022-11-05T15:28:31.506Z,5.83
2022-11-05T15:31:01.968Z,8.03
2022-11-05T15:33:30.949Z,16.50
2022-11-05T15:36:10.484Z,8.10
2022-11-05T15:38:38.636Z,7.03
2022-11-05T15:41:14.696Z,12.23
2022-11-05T15:43:48.124Z,7.93
2022-11-05T15:46:18.245Z,5.37
2022-11-05T15:48:49.721Z,6.83
2022-11-05T15:51:18.198Z,5.10
2022-11-05T15:56:51.145Z,8.53
2022-11-05T15:59:22.140Z,4.93
2022-11-05T16:01:52.493Z,4.13
2022-11-05T16:04:23.055Z,6.50
2022-11-05T16:06:53.850Z,3.97
2022-11-05T16:09:25.073Z,6.23
2022-11-05T16:12:14.789Z,6.33
2022-11-05T16:14:44.203Z,4.13
2022-11-05T16:17:19.853Z,28.17
2022-11-05T16:19:48.424Z,21.97
2022-11-05T16:22:17.027Z,7.27
2022-11-05T16:24:45.733Z,9.23
2022-11-05T16:27:19.408Z,4.50
2022-11-05T16:29:57.264Z,3.87
2022-11-05T16:32:31.209Z,3.97
2022-11-05T16:35:02.114Z,6.90
2022-11-05T16:37:36.752Z,6.33
2022-11-05T16:40:16.338Z,4.67
2022-11-05T16:42:50.126Z,4.77
2022-11-05T16:45:21.907Z,5.23
2022-11-05T16:47:50.474Z,4.87
2022-11-05T16:50:23.116Z,5.40
2022-11-05T16:52:51.937Z,4.83
2022-11-05T16:55:20.477Z,4.97
2022-11-05T16:57:53.495Z,6.20
2022-11-05T17:00:23.959Z,4.57
2022-11-05T17:02:52.443Z,5.17
2022-11-05T17:05:32.769Z,4.73
2022-11-05T17:08:03.455Z,8.20
2022-11-05T17:10:31.720Z,6.03
2022-11-05T17:12:59.807Z,5.27
2022-11-05T17:15:35.682Z,4.97
2022-11-05T17:18:05.753Z,6.77
2022-11-05T17:20:40.769Z,4.50
2022-11-05T17:23:10.717Z,7.10
2022-11-05T17:25:39.404Z,5.03
2022-11-05T17:28:08.764Z,7.73
2022-11-05T17:30:42.209Z,5.40
2022-11-05T17:33:11.959Z,5.73
2022-11-05T17:35:41.188Z,3.70
2022-11-05T17:38:09.785Z,4.27
2022-11-05T17:40:38.719Z,5.30
2022-11-05T17:43:07.342Z,4.03
2022-11-05T17:45:35.742Z,4.93
2022-11-05T17:48:05.790Z,5.33
2022-11-05T17:50:33.921Z,3.20
2022-11-05T17:53:02.109Z,5.10
2022-11-05T17:55:30.198Z,4.80
2022-11-05T17:57:58.330Z,6.10
2022-11-05T18:00:27.192Z,6.77
2022-11-05T18:02:55.948Z,4.43
2022-11-05T18:05:27.924Z,6.13
2022-11-05T18:07:56.524Z,6.63
2022-11-05T18:10:25.853Z,8.10
2022-11-05T18:12:53.867Z,9.07
2022-11-05T18:15:22.506Z,6.83
2022-11-05T18:17:50.650Z,6.93
2022-11-05T18:20:19.714Z,9.90
2022-11-05T18:22:51.042Z,6.47
2022-11-05T18:25:19.343Z,7.47
2022-11-05T18:27:47.499Z,5.37
2022-11-05T18:30:16.047Z,6.17
2022-11-05T18:32:45.276Z,5.03
2022-11-05T18:35:13.478Z,7.53
2022-11-05T18:37:42.219Z,5.97
2022-11-05T18:40:12.454Z,4.70
2022-11-05T18:42:41.116Z,5.77
2022-11-05T18:45:11.301Z,6.40
2022-11-05T18:47:39.771Z,6.13
2022-11-05T18:50:09.347Z,6.53
2022-11-05T18:52:37.778Z,5.87
2022-11-05T18:55:06.960Z,8.20
2022-11-05T18:57:36.472Z,5.67
2022-11-05T19:00:05.453Z,7.00
2022-11-05T19:02:33.732Z,5.43
2022-11-05T19:07:50.314Z,7.63
2022-11-05T19:10:18.656Z,10.50
2022-11-05T19:12:48.342Z,9.23
2022-11-05T19:15:16.381Z,7.13
2022-11-05T19:17:44.599Z,6.53
2022-11-05T19:20:13.363Z,5.87
2022-11-05T19:22:41.408Z,6.63
2022-11-05T19:25:09.741Z,6.40
2022-11-05T19:27:38.730Z,3.90
2022-11-05T19:30:09.076Z,7.83
2022-11-05T19:32:37.190Z,5.53
2022-11-05T19:35:05.739Z,4.23
2022-11-05T19:37:33.805Z,6.77
2022-11-05T19:40:01.794Z,8.27
2022-11-05T19:42:29.988Z,7.93
2022-11-05T19:45:06.870Z,6.10
2022-11-05T19:47:46.553Z,6.20
2022-11-05T19:50:14.653Z,11.93
2022-11-05T19:52:42.763Z,8.73
2022-11-05T19:55:12.312Z,5.53
2022-11-05T19:57:40.561Z,12.37
2022-11-05T20:00:10.091Z,7.97
2022-11-05T20:02:40.004Z,5.90
2022-11-05T20:05:09.946Z,10.47
2022-11-05T20:07:38.051Z,7.73
2022-11-05T20:10:07.336Z,6.73
2022-11-05T20:12:35.610Z,7.00
2022-11-05T20:15:04.770Z,8.53
2022-11-05T20:17:32.963Z,9.60
2022-11-05T20:20:01.071Z,8.93
2022-11-05T20:22:30.582Z,6.20
2022-11-05T20:24:58.636Z,5.87
2022-11-05T20:27:26.841Z,8.83
2022-11-05T20:29:54.921Z,8.80
2022-11-05T20:32:23.090Z,6.83
2022-11-05T20:34:51.119Z,10.23
2022-11-05T20:37:19.080Z,7.10
2022-11-05T20:39:48.611Z,10.47
2022-11-05T20:42:17.369Z,8.03
2022-11-05T20:44:45.640Z,9.13
2022-11-05T20:47:13.739Z,7.30
2022-11-05T20:49:41.881Z,9.93
2022-11-05T20:52:10.007Z,6.43
2022-11-05T20:54:38.479Z,8.53
2022-11-05T20:57:07.940Z,8.93
2022-11-05T20:59:36.143Z,8.00
2022-11-05T21:02:04.414Z,8.20
2022-11-05T21:04:32.990Z,7.63
2022-11-05T21:07:01.380Z,6.93
2022-11-05T21:09:29.698Z,8.70
2022-11-05T21:12:12.622Z,7.77
2022-11-05T21:14:44.413Z,6.90
2022-11-05T21:17:13.545Z,9.23
2022-11-05T21:19:41.585Z,8.07
2022-11-05T21:22:09.838Z,7.17
2022-11-05T21:24:37.931Z,10.70
2022-11-05T21:27:05.902Z,8.47
2022-11-05T21:29:34.055Z,11.80
2022-11-05T21:32:03.635Z,8.07
2022-11-05T21:34:31.672Z,11.67
2022-11-05T21:36:59.886Z,11.10
2022-11-05T21:39:29.020Z,12.07
2022-11-05T21:41:57.387Z,6.00
2022-11-05T21:44:25.313Z,7.57
2022-11-05T21:46:57.174Z,8.50
2022-11-05T21:49:26.871Z,9.00
2022-11-05T21:52:12.048Z,7.67
2022-11-05T21:54:57.515Z,6.70
2022-11-05T21:57:42.843Z,7.53
2022-11-05T22:00:12.711Z,7.10
2022-11-05T22:02:40.778Z,7.17
2022-11-05T22:05:10.370Z,10.50
2022-11-05T22:07:40.219Z,9.07
2022-11-05T22:10:15.857Z,9.17
2022-11-05T22:12:47.223Z,8.83
2022-11-05T22:15:15.509Z,7.70
2022-11-05T22:17:46.959Z,9.43
2022-11-05T22:20:18.038Z,9.83
2022-11-05T22:22:46.181Z,10.57
2022-11-05T22:25:16.780Z,5.87
2022-11-05T22:27:44.944Z,8.50
2022-11-05T22:30:14.510Z,9.13
2022-11-05T22:32:42.650Z,8.07
2022-11-05T22:35:11.202Z,5.97
2022-11-05T22:37:40.581Z,10.60
2022-11-05T22:40:09.692Z,10.80
2022-11-05T22:42:37.905Z,9.73
2022-11-05T22:45:07.137Z,6.37
2022-11-05T22:47:35.178Z,7.23
2022-11-05T22:50:03.344Z,8.37
2022-11-05T22:52:32.650Z,6.67
2022-11-05T22:55:03.599Z,5.03
2022-11-05T22:57:31.793Z,6.20
2022-11-05T22:59:59.922Z,7.37
2022-11-05T23:02:28.154Z,6.00
2022-11-05T23:04:56.370Z,5.90
2022-11-05T23:07:42.163Z,6.43
2022-11-05T23:10:29.158Z,7.53
2022-11-05T23:12:57.088Z,5.63
2022-11-05T23:15:42.264Z,9.00
2022-11-05T23:18:28.406Z,5.13
2022-11-05T23:21:14.735Z,6.90
2022-11-05T23:24:02.220Z,5.83
2022-11-05T23:26:52.342Z,6.73
2022-11-05T23:29:22.156Z,5.10
2022-11-05T23:32:08.145Z,5.70
2022-11-05T23:34:36.475Z,8.27
2022-11-05T23:37:21.936Z,9.40
2022-11-05T23:39:50.221Z,7.47
2022-11-05T23:42:36.974Z,8.50
2022-11-05T23:45:23.164Z,8.07
2022-11-05T23:48:08.315Z,8.27
2022-11-05T23:50:39.726Z,6.53
2022-11-05T23:53:08.817Z,7.80
2022-11-05T23:55:37.438Z,7.63
2022-11-05T23:58:06.686Z,7.70
